createdAt,value
2018-09-21T00:00:01.061Z,54.33
2018-09-21T00:02:35.747Z,54.32
2018-09-21T00:05:10.316Z,54.97
2018-09-21T00:07:44.928Z,54.88
2018-09-21T00:10:19.573Z,55.05
2018-09-21T00:12:54.049Z,55.40
2018-09-21T00:15:28.567Z,56.02
2018-09-21T00:18:03.236Z,56.16
2018-09-21T00:20:37.883Z,55.92
2018-09-21T00:23:12.411Z,55.91
2018-09-21T00:25:46.937Z,55.90
2018-09-21T00:28:21.449Z,55.58
2018-09-21T00:30:56.077Z,55.43
2018-09-21T00:33:30.667Z,56.20
2018-09-21T00:36:05.325Z,55.58
2018-09-21T00:38:40.086Z,55.42
2018-09-21T00:41:14.748Z,55.52
2018-09-21T00:43:49.341Z,55.69
2018-09-21T00:46:23.891Z,56.02
2018-09-21T00:48:58.452Z,56.12
2018-09-21T00:51:33.211Z,56.31
2018-09-21T00:54:07.849Z,56.74
2018-09-21T00:56:42.468Z,56.74
2018-09-21T00:59:17.116Z,56.99
2018-09-21T01:01:51.785Z,56.63
2018-09-21T01:04:26.665Z,56.58
2018-09-21T01:07:01.225Z,57.65
2018-09-21T01:09:35.785Z,57.27
2018-09-21T01:12:10.431Z,57.40
2018-09-21T01:14:45.089Z,56.79
2018-09-21T01:17:19.625Z,57.38
2018-09-21T01:19:54.304Z,57.46
2018-09-21T01:22:28.908Z,57.40
2018-09-21T01:25:03.538Z,57.88
2018-09-21T01:27:38.017Z,57.97
2018-09-21T01:30:12.558Z,57.51
2018-09-21T01:32:47.277Z,58.08
2018-09-21T01:35:21.732Z,58.38
2018-09-21T01:37:56.342Z,58.31
2018-09-21T01:40:30.838Z,58.74
2018-09-21T01:43:05.188Z,58.83
2018-09-21T01:45:39.687Z,59.03
2018-09-21T01:48:14.318Z,59.14
2018-09-21T01:51:11.441Z,59.24
2018-09-21T01:53:56.044Z,58.67
2018-09-21T01:56:30.549Z,58.62
2018-09-21T01:59:05.197Z,59.20
2018-09-21T02:01:39.710Z,59.68
2018-09-21T02:04:14.110Z,59.63
2018-09-21T02:06:48.696Z,59.47
2018-09-21T02:09:23.261Z,59.68
2018-09-21T02:11:57.805Z,59.37
2018-09-21T02:14:32.408Z,58.92
2018-09-21T02:17:06.952Z,58.84
2018-09-21T02:19:41.570Z,58.70
2018-09-21T02:22:16.257Z,58.46
2018-09-21T02:24:50.720Z,57.59
2018-09-21T02:27:25.310Z,57.69
2018-09-21T02:30:00.002Z,57.08
2018-09-21T02:32:34.612Z,56.61
2018-09-21T02:35:09.543Z,56.51
2018-09-21T02:37:44.211Z,56.31
2018-09-21T02:40:19.194Z,55.67
2018-09-21T02:42:53.730Z,55.91
2018-09-21T02:45:28.193Z,55.08
2018-09-21T02:48:02.808Z,54.95
2018-09-21T02:50:37.713Z,55.29
2018-09-21T02:53:12.348Z,54.90
2018-09-21T02:55:46.848Z,55.19
2018-09-21T02:58:21.466Z,54.94
2018-09-21T03:00:56.321Z,55.29
2018-09-21T03:03:31.101Z,54.87
2018-09-21T03:06:05.749Z,55.00
2018-09-21T03:08:40.333Z,54.83
2018-09-21T03:11:14.957Z,54.52
2018-09-21T03:13:49.501Z,54.21
2018-09-21T03:16:24.206Z,53.54
2018-09-21T03:18:58.881Z,53.19
2018-09-21T03:21:33.460Z,53.76
2018-09-21T03:24:07.904Z,53.48
2018-09-21T03:26:42.505Z,53.64
2018-09-21T03:29:16.941Z,53.04
2018-09-21T03:31:51.609Z,52.96
2018-09-21T03:34:40.894Z,52.67
2018-09-21T03:37:15.442Z,53.27
2018-09-21T03:39:49.845Z,53.04
2018-09-21T03:42:24.385Z,52.94
2018-09-21T03:44:59.114Z,52.64
2018-09-21T03:47:33.605Z,53.38
2018-09-21T03:50:08.028Z,53.51
2018-09-21T03:52:42.578Z,53.70
2018-09-21T03:55:16.961Z,53.37
2018-09-21T03:57:51.583Z,53.64
2018-09-21T04:00:26.202Z,53.53
2018-09-21T04:03:00.821Z,53.41
2018-09-21T04:05:35.457Z,53.56
2018-09-21T04:08:10.173Z,53.18
2018-09-21T04:10:44.742Z,52.99
2018-09-21T04:13:19.432Z,53.31
2018-09-21T04:15:54.021Z,53.02
2018-09-21T04:18:28.412Z,53.25
2018-09-21T04:21:03.157Z,53.50
2018-09-21T04:23:37.885Z,53.31
2018-09-21T04:26:12.477Z,53.14
2018-09-21T04:28:46.937Z,53.35
2018-09-21T04:31:21.917Z,53.31
2018-09-21T04:33:56.580Z,53.63
2018-09-21T04:36:31.189Z,53.94
2018-09-21T04:39:08.764Z,53.81
2018-09-21T04:41:43.280Z,54.43
2018-09-21T04:44:23.370Z,54.38
2018-09-21T04:46:57.873Z,54.42
2018-09-21T04:49:32.277Z,54.46
2018-09-21T04:52:06.840Z,54.84
2018-09-21T04:54:41.357Z,54.67
2018-09-21T04:57:15.950Z,55.23
2018-09-21T04:59:50.642Z,55.40
2018-09-21T05:02:25.287Z,54.91
2018-09-21T05:04:59.889Z,55.28
2018-09-21T05:07:34.382Z,55.74
2018-09-21T05:10:08.999Z,55.39
2018-09-21T05:12:43.536Z,56.08
2018-09-21T05:15:18.213Z,56.01
2018-09-21T05:17:52.985Z,56.56
2018-09-21T05:20:27.692Z,56.71
2018-09-21T05:23:02.250Z,56.98
2018-09-21T05:25:36.896Z,57.27
2018-09-21T05:31:24.705Z,57.55
2018-09-21T05:33:59.449Z,57.60
2018-09-21T05:36:33.966Z,57.89
2018-09-21T05:39:11.113Z,58.18
2018-09-21T05:41:45.602Z,58.34
2018-09-21T05:44:20.230Z,58.34
2018-09-21T05:46:54.991Z,58.12
2018-09-21T05:49:29.474Z,58.47
2018-09-21T05:52:04.130Z,58.43
2018-09-21T05:54:38.881Z,59.15
2018-09-21T05:57:13.558Z,58.96
2018-09-21T05:59:48.137Z,58.91
2018-09-21T06:02:22.760Z,59.35
2018-09-21T06:05:03.965Z,59.54
2018-09-21T06:07:38.805Z,59.13
2018-09-21T06:10:13.387Z,59.21
2018-09-21T06:12:48.039Z,59.19
2018-09-21T06:15:22.688Z,60.02
2018-09-21T06:17:57.343Z,59.66
2018-09-21T06:20:31.978Z,60.23
2018-09-21T06:23:06.934Z,60.11
2018-09-21T06:25:41.393Z,60.27
2018-09-21T06:28:16.012Z,60.61
2018-09-21T06:30:50.600Z,59.88
2018-09-21T06:33:25.193Z,60.14
2018-09-21T06:35:59.792Z,60.79
2018-09-21T06:38:34.459Z,60.96
2018-09-21T06:41:09.194Z,60.30
2018-09-21T06:43:43.775Z,60.74
2018-09-21T06:46:18.404Z,60.59
2018-09-21T06:48:53.042Z,60.42
2018-09-21T06:51:27.713Z,60.22
2018-09-21T06:54:02.652Z,60.52
2018-09-21T06:56:37.348Z,60.34
2018-09-21T06:59:11.898Z,60.30
2018-09-21T07:01:46.594Z,59.99
2018-09-21T07:04:26.941Z,59.69
2018-09-21T07:07:01.573Z,59.52
2018-09-21T07:09:36.181Z,59.76
2018-09-21T07:12:10.704Z,59.17
2018-09-21T07:14:45.349Z,58.99
2018-09-21T07:17:19.886Z,59.08
2018-09-21T07:19:54.510Z,58.69
2018-09-21T07:22:29.185Z,58.45
2018-09-21T07:25:03.832Z,57.58
2018-09-21T07:27:38.497Z,57.50
2018-09-21T07:30:13.125Z,57.21
2018-09-21T07:32:47.759Z,57.10
2018-09-21T07:35:22.448Z,57.56
2018-09-21T07:37:57.005Z,56.60
2018-09-21T07:40:31.536Z,56.32
2018-09-21T07:43:06.221Z,55.11
2018-09-21T07:45:40.749Z,55.57
2018-09-21T07:48:15.246Z,55.03
2018-09-21T07:50:50.573Z,54.94
2018-09-21T07:53:25.134Z,55.55
2018-09-21T07:55:59.783Z,55.90
2018-09-21T07:58:34.310Z,56.21
2018-09-21T08:01:09.013Z,57.58
2018-09-21T08:03:43.630Z,59.14
2018-09-21T08:06:18.133Z,57.63
2018-09-21T08:08:52.662Z,57.86
2018-09-21T08:11:27.156Z,55.62
2018-09-21T08:14:01.711Z,54.36
2018-09-21T08:16:37.165Z,54.24
2018-09-21T08:19:11.641Z,53.76
2018-09-21T08:21:46.366Z,53.64
2018-09-21T08:24:24.856Z,53.44
2018-09-21T08:26:59.560Z,53.51
2018-09-21T08:29:34.163Z,53.93
2018-09-21T08:32:08.767Z,54.17
2018-09-21T08:34:43.476Z,53.88
2018-09-21T08:37:18.108Z,54.21
2018-09-21T08:39:52.661Z,56.01
2018-09-21T08:42:27.248Z,57.02
2018-09-21T08:45:01.799Z,57.26
2018-09-21T08:47:36.399Z,61.19
2018-09-21T08:50:11.174Z,63.02
2018-09-21T08:52:45.746Z,71.61
2018-09-21T08:55:20.301Z,83.35
2018-09-21T08:57:54.824Z,89.61
2018-09-21T09:00:29.364Z,99.31
2018-09-21T09:06:03.105Z,100.00
2018-09-21T09:08:37.784Z,100.00
2018-09-21T09:11:12.368Z,100.00
2018-09-21T09:13:46.864Z,100.00
2018-09-21T09:16:21.435Z,100.00
2018-09-21T09:18:55.869Z,99.83
2018-09-21T09:21:30.461Z,100.00
2018-09-21T09:24:04.997Z,100.00
2018-09-21T09:26:39.456Z,100.00
2018-09-21T09:29:14.056Z,100.00
2018-09-21T09:31:48.745Z,100.00
2018-09-21T09:34:23.321Z,100.00
2018-09-21T09:36:57.967Z,100.00
2018-09-21T09:39:32.546Z,100.00
2018-09-21T09:42:06.988Z,100.00
2018-09-21T09:44:41.415Z,100.00
2018-09-21T09:47:16.090Z,100.00
2018-09-21T09:49:50.664Z,100.00
2018-09-21T09:52:25.104Z,100.00
2018-09-21T09:54:59.801Z,100.00
2018-09-21T09:57:34.201Z,100.00
2018-09-21T10:00:09.185Z,100.00
2018-09-21T10:02:43.801Z,100.00
2018-09-21T10:05:18.469Z,100.00
2018-09-21T10:07:53.107Z,100.00
2018-09-21T10:10:27.635Z,100.00
2018-09-21T10:13:02.125Z,100.00
2018-09-21T10:15:36.910Z,100.00
2018-09-21T10:18:11.621Z,100.00
2018-09-21T10:20:46.266Z,100.00
2018-09-21T10:23:20.669Z,100.00
2018-09-21T10:25:55.334Z,100.00
2018-09-21T10:28:30.138Z,100.00
2018-09-21T10:31:04.607Z,100.00
2018-09-21T10:33:39.275Z,100.00
2018-09-21T10:36:13.770Z,100.00
2018-09-21T10:38:48.478Z,100.00
2018-09-21T10:41:22.773Z,100.00
2018-09-21T10:43:57.169Z,100.00
2018-09-21T10:46:31.784Z,100.00
2018-09-21T10:49:06.232Z,100.00
2018-09-21T10:51:41.013Z,100.00
2018-09-21T10:54:15.518Z,100.00
2018-09-21T10:56:50.491Z,100.00
2018-09-21T10:59:25.543Z,100.00
2018-09-21T11:02:00.027Z,100.00
2018-09-21T11:04:34.638Z,100.00
2018-09-21T11:07:09.136Z,100.00
2018-09-21T11:09:43.468Z,100.00
2018-09-21T11:12:18.052Z,100.00
2018-09-21T11:14:52.477Z,100.00
2018-09-21T11:17:27.065Z,100.00
2018-09-21T11:20:01.468Z,100.00
2018-09-21T11:22:35.948Z,99.94
2018-09-21T11:25:10.341Z,100.00
2018-09-21T11:27:44.681Z,100.00
2018-09-21T11:30:19.201Z,99.46
2018-09-21T11:32:53.785Z,99.24
2018-09-21T11:35:28.424Z,97.49
2018-09-21T11:38:03.013Z,97.58
2018-09-21T11:40:37.460Z,94.55
2018-09-21T11:43:12.148Z,95.58
2018-09-21T11:45:46.653Z,93.36
2018-09-21T11:48:21.179Z,90.75
2018-09-21T11:50:55.712Z,91.66
2018-09-21T11:53:30.330Z,92.58
2018-09-21T11:56:04.834Z,89.54
2018-09-21T11:58:39.405Z,90.91
2018-09-21T12:01:14.025Z,90.79
2018-09-21T12:03:48.571Z,88.69
2018-09-21T12:06:23.178Z,92.14
2018-09-21T12:08:57.756Z,90.89
2018-09-21T12:11:32.197Z,91.68
2018-09-21T12:14:06.654Z,91.41
2018-09-21T12:16:41.401Z,90.23
2018-09-21T12:19:15.970Z,90.84
2018-09-21T12:21:50.573Z,91.39
2018-09-21T12:24:25.099Z,88.43
2018-09-21T12:26:59.680Z,92.18
2018-09-21T12:29:34.349Z,86.38
2018-09-21T12:32:08.820Z,86.92
2018-09-21T12:34:43.352Z,85.53
2018-09-21T12:37:36.296Z,86.11
2018-09-21T12:40:23.941Z,90.63
2018-09-21T12:42:58.400Z,89.21
2018-09-21T12:45:33.121Z,89.39
2018-09-21T12:48:07.811Z,88.00
2018-09-21T12:50:42.390Z,88.19
2018-09-21T12:53:16.909Z,86.35
2018-09-21T12:55:51.208Z,85.74
2018-09-21T12:58:25.816Z,82.47
2018-09-21T13:01:00.273Z,78.80
2018-09-21T13:03:48.107Z,78.54
2018-09-21T13:06:22.719Z,78.85
2018-09-21T13:08:57.432Z,77.40
2018-09-21T13:11:32.093Z,77.90
2018-09-21T13:14:06.813Z,77.96
2018-09-21T13:16:41.290Z,75.52
2018-09-21T13:19:15.953Z,71.91
2018-09-21T13:21:50.742Z,69.58
2018-09-21T13:24:25.320Z,71.07
2018-09-21T13:26:59.764Z,69.81
2018-09-21T13:29:34.405Z,68.97
2018-09-21T13:32:09.399Z,69.16
2018-09-21T13:34:43.819Z,65.89
2018-09-21T13:37:18.268Z,66.53
2018-09-21T13:39:52.927Z,63.96
2018-09-21T13:42:27.510Z,65.48
2018-09-21T13:45:02.220Z,60.26
2018-09-21T13:47:36.893Z,60.13
2018-09-21T13:50:11.401Z,60.13
2018-09-21T13:52:46.001Z,58.70
2018-09-21T13:55:20.602Z,60.42
2018-09-21T13:57:55.264Z,59.28
2018-09-21T14:00:29.778Z,58.73
2018-09-21T14:03:04.330Z,61.36
2018-09-21T14:05:39.018Z,56.66
2018-09-21T14:08:13.449Z,57.29
2018-09-21T14:10:48.073Z,59.46
2018-09-21T14:13:22.606Z,58.02
2018-09-21T14:15:57.329Z,58.11
2018-09-21T14:18:31.825Z,58.22
2018-09-21T14:21:06.550Z,58.18
2018-09-21T14:23:41.179Z,56.88
2018-09-21T14:26:15.766Z,57.12
2018-09-21T14:28:50.316Z,56.72
2018-09-21T14:31:25.049Z,57.00
2018-09-21T14:33:59.537Z,55.11
2018-09-21T14:36:34.054Z,52.91
2018-09-21T14:39:10.076Z,46.12
2018-09-21T14:41:44.713Z,47.49
2018-09-21T14:44:19.257Z,44.84
2018-09-21T14:46:53.872Z,44.77
2018-09-21T14:49:28.560Z,45.53
2018-09-21T14:52:03.101Z,44.80
2018-09-21T14:54:53.117Z,42.50
2018-09-21T14:57:27.644Z,39.06
2018-09-21T15:00:02.642Z,39.57
2018-09-21T15:02:37.247Z,41.40
2018-09-21T15:05:11.944Z,44.36
2018-09-21T15:07:46.469Z,45.00
2018-09-21T15:10:21.330Z,43.60
2018-09-21T15:12:55.969Z,43.61
2018-09-21T15:15:30.677Z,43.98
2018-09-21T15:18:05.193Z,43.03
2018-09-21T15:20:39.788Z,45.42
2018-09-21T15:23:14.164Z,46.37
2018-09-21T15:25:48.590Z,46.02
2018-09-21T15:28:23.159Z,46.65
2018-09-21T15:30:57.630Z,46.81
2018-09-21T15:33:32.347Z,46.54
2018-09-21T15:36:06.940Z,46.34
2018-09-21T15:38:41.774Z,46.71
2018-09-21T15:41:16.297Z,45.77
2018-09-21T15:43:50.721Z,45.44
2018-09-21T15:46:25.357Z,46.15
2018-09-21T15:48:59.856Z,46.97
2018-09-21T15:51:35.073Z,47.97
2018-09-21T15:54:09.653Z,49.84
2018-09-21T15:56:44.265Z,49.09
2018-09-21T15:59:18.925Z,49.05
2018-09-21T16:02:16.073Z,47.87
2018-09-21T16:05:03.233Z,47.62
2018-09-21T16:07:37.773Z,48.16
2018-09-21T16:10:16.283Z,47.75
2018-09-21T16:13:00.250Z,48.55
2018-09-21T16:15:48.470Z,48.73
2018-09-21T16:18:22.966Z,48.92
2018-09-21T16:20:57.465Z,49.61
2018-09-21T16:23:32.118Z,49.04
2018-09-21T16:26:06.667Z,48.29
2018-09-21T16:28:41.656Z,48.42
2018-09-21T16:31:16.221Z,46.33
2018-09-21T16:33:50.654Z,45.89
2018-09-21T16:36:25.309Z,45.00
2018-09-21T16:39:00.164Z,44.78
2018-09-21T16:41:34.821Z,45.37
2018-09-21T16:44:09.753Z,44.71
2018-09-21T16:46:44.498Z,43.88
2018-09-21T16:49:19.013Z,44.91
2018-09-21T16:51:53.693Z,44.00
2018-09-21T16:54:28.254Z,43.80
2018-09-21T16:57:02.950Z,45.27
2018-09-21T16:59:37.417Z,44.20
2018-09-21T17:02:11.796Z,43.25
2018-09-21T17:04:46.271Z,44.11
2018-09-21T17:07:20.705Z,44.05
2018-09-21T17:09:55.334Z,44.64
2018-09-21T17:12:30.014Z,44.18
2018-09-21T17:15:04.556Z,45.38
2018-09-21T17:17:39.260Z,46.13
2018-09-21T17:20:14.051Z,47.32
2018-09-21T17:22:48.664Z,46.80
2018-09-21T17:25:23.157Z,47.46
2018-09-21T17:27:57.917Z,47.91
2018-09-21T17:30:32.669Z,47.96
2018-09-21T17:33:07.345Z,48.23
2018-09-21T17:35:42.329Z,49.28
2018-09-21T17:38:16.997Z,48.34
2018-09-21T17:40:51.688Z,48.83
2018-09-21T17:43:26.394Z,48.90
2018-09-21T17:46:00.832Z,48.34
2018-09-21T17:48:35.921Z,48.92
2018-09-21T17:51:10.551Z,47.53
2018-09-21T17:53:46.608Z,49.22
2018-09-21T17:56:21.062Z,48.55
2018-09-21T17:58:55.553Z,48.85
2018-09-21T18:01:30.139Z,48.59
2018-09-21T18:04:04.945Z,49.52
2018-09-21T18:06:39.569Z,50.70
2018-09-21T18:09:14.067Z,50.63
2018-09-21T18:11:49.386Z,49.89
2018-09-21T18:14:23.874Z,50.98
2018-09-21T18:16:58.581Z,50.21
2018-09-21T18:19:32.955Z,50.62
2018-09-21T18:22:07.438Z,51.21
2018-09-21T18:24:42.194Z,50.95
2018-09-21T18:27:16.821Z,50.81
2018-09-21T18:29:51.477Z,51.48
2018-09-21T18:32:26.652Z,51.74
2018-09-21T18:35:01.148Z,51.59
2018-09-21T18:37:35.832Z,51.32
2018-09-21T18:40:10.385Z,51.07
2018-09-21T18:42:44.871Z,51.54
2018-09-21T18:45:19.683Z,52.32
2018-09-21T18:47:54.437Z,52.28
2018-09-21T18:50:29.190Z,53.13
2018-09-21T18:53:03.653Z,53.21
2018-09-21T18:58:40.621Z,54.30
2018-09-21T19:01:15.142Z,54.64
2018-09-21T19:03:49.591Z,54.22
2018-09-21T19:06:24.156Z,53.54
2018-09-21T19:08:59.207Z,53.78
2018-09-21T19:11:41.730Z,53.81
2018-09-21T19:14:16.326Z,54.28
2018-09-21T19:16:51.018Z,53.84
2018-09-21T19:19:25.827Z,54.07
2018-09-21T19:22:00.540Z,53.99
2018-09-21T19:24:35.112Z,53.48
2018-09-21T19:27:09.805Z,53.93
2018-09-21T19:29:44.409Z,53.43
2018-09-21T19:32:18.876Z,54.36
2018-09-21T19:34:53.296Z,53.71
2018-09-21T19:37:28.016Z,52.82
2018-09-21T19:40:02.761Z,52.90
2018-09-21T19:42:37.462Z,53.42
2018-09-21T19:45:12.963Z,53.25
2018-09-21T19:47:48.957Z,53.25
2018-09-21T19:50:23.588Z,52.63
2018-09-21T19:52:58.191Z,53.12
2018-09-21T19:55:32.891Z,52.63
2018-09-21T19:58:08.369Z,52.76
2018-09-21T20:00:42.944Z,52.12
2018-09-21T20:03:17.489Z,52.62
2018-09-21T20:05:52.469Z,52.50
2018-09-21T20:08:26.944Z,52.31
2018-09-21T20:11:01.580Z,52.97
2018-09-21T20:13:36.356Z,52.77
2018-09-21T20:16:11.308Z,52.56
2018-09-21T20:18:45.804Z,52.95
2018-09-21T20:21:20.293Z,53.21
2018-09-21T20:23:54.689Z,53.04
2018-09-21T20:26:29.213Z,53.03
2018-09-21T20:29:03.885Z,53.95
2018-09-21T20:32:44.443Z,53.23
2018-09-21T20:35:19.167Z,54.48
2018-09-21T20:37:53.725Z,54.78
2018-09-21T20:40:28.225Z,54.61
2018-09-21T20:43:02.939Z,54.98
2018-09-21T20:45:37.416Z,55.35
2018-09-21T20:48:11.997Z,55.85
2018-09-21T20:50:46.565Z,55.52
2018-09-21T20:53:21.549Z,55.58
2018-09-21T20:55:55.969Z,56.23
2018-09-21T20:58:30.471Z,56.36
2018-09-21T21:01:05.149Z,56.60
2018-09-21T21:03:39.742Z,56.63
2018-09-21T21:06:14.217Z,57.06
2018-09-21T21:08:48.831Z,57.09
2018-09-21T21:11:23.284Z,57.37
2018-09-21T21:13:57.668Z,57.42
2018-09-21T21:16:32.208Z,57.63
2018-09-21T21:19:06.793Z,58.28
2018-09-21T21:21:41.320Z,58.58
2018-09-21T21:24:15.981Z,58.78
2018-09-21T21:26:50.476Z,59.64
2018-09-21T21:29:24.945Z,59.63
2018-09-21T21:31:59.609Z,60.10
2018-09-21T21:34:34.165Z,60.09
2018-09-21T21:37:08.696Z,60.83
2018-09-21T21:39:43.103Z,60.98
2018-09-21T21:42:17.737Z,60.77
2018-09-21T21:44:52.100Z,61.44
2018-09-21T21:47:26.732Z,61.55
2018-09-21T21:50:01.317Z,62.26
2018-09-21T21:52:36.028Z,61.83
2018-09-21T21:55:10.685Z,62.46
2018-09-21T21:57:45.100Z,62.39
2018-09-21T22:00:20.068Z,62.52
2018-09-21T22:02:54.581Z,62.85
2018-09-21T22:05:29.293Z,62.93
2018-09-21T22:08:03.791Z,62.69
2018-09-21T22:10:38.219Z,62.51
2018-09-21T22:13:18.164Z,62.96
2018-09-21T22:15:52.689Z,62.82
2018-09-21T22:18:27.590Z,63.39
2018-09-21T22:21:02.324Z,63.61
2018-09-21T22:23:46.273Z,63.48
2018-09-21T22:26:20.828Z,63.98
2018-09-21T22:28:55.681Z,64.23
2018-09-21T22:31:30.701Z,64.44
2018-09-21T22:34:05.206Z,64.54
2018-09-21T22:36:39.738Z,64.61
2018-09-21T22:39:14.184Z,65.17
2018-09-21T22:41:48.846Z,65.35
2018-09-21T22:44:26.848Z,65.09
2018-09-21T22:47:01.226Z,65.41
2018-09-21T22:49:35.755Z,64.57
2018-09-21T22:52:10.244Z,65.36
2018-09-21T22:54:44.834Z,65.18
2018-09-21T22:57:19.404Z,65.71
2018-09-21T22:59:54.034Z,65.48
2018-09-21T23:05:27.239Z,65.71
2018-09-21T23:08:01.620Z,66.23
2018-09-21T23:10:36.044Z,65.90
2018-09-21T23:13:10.353Z,66.00
2018-09-21T23:15:44.831Z,65.73
2018-09-21T23:18:19.325Z,65.19
2018-09-21T23:20:53.724Z,65.20
2018-09-21T23:23:28.060Z,65.04
2018-09-21T23:26:02.517Z,65.27
2018-09-21T23:28:36.903Z,65.19
2018-09-21T23:31:11.452Z,64.99
2018-09-21T23:33:45.780Z,65.13
2018-09-21T23:36:20.495Z,65.16
2018-09-21T23:38:54.971Z,65.12
2018-09-21T23:41:29.525Z,65.06
2018-09-21T23:44:04.126Z,65.03
2018-09-21T23:46:38.791Z,65.07
2018-09-21T23:49:13.103Z,65.11
2018-09-21T23:51:47.603Z,65.45
2018-09-21T23:54:21.884Z,65.49
2018-09-21T23:56:56.312Z,65.63
2018-09-21T23:59:30.651Z,65.86
